DLH85M LQSA-LWSK
Flight info
| Callsign | DLH85M |
|---|---|
| Flight time | 0h 35m |
| Altitude | 31000 |
| Route | RUDAR DCT REMSO DCT GENLU DCT REDVA DCT PRT DCT 422703N0212806E 422137N0213922E 421347N0214027E 420906N0213819E DCT 420532N0213620E |
| Aircraft | A320/M-SDE3FGHIRWY/LB1 |
Departure
| Time | 2026-04-20 18:04 |
|---|---|
| Airport | Sarajevo International Airport (LQSA) |
Arrival
| Time | 2026-04-20 18:39 |
|---|---|
| Airport | Skopje International Airport (LWSK) |
| Time | Latitude | Longitude | Altitude | Speed | Heading |
|---|---|---|---|---|---|
| 2026-04-20 17:46 | 43.82546 | 18.33634 | 1668 ft | 0 kts | 27° |
| 2026-04-20 17:56 | 43.82543 | 18.33632 | 1668 ft | 2 kts | 27° |
| 2026-04-20 17:56 | 43.82529 | 18.33619 | 1668 ft | 2 kts | 59° |
| 2026-04-20 17:56 | 43.82523 | 18.33597 | 1668 ft | 2 kts | 94° |
| 2026-04-20 17:56 | 43.82524 | 18.33584 | 1668 ft | 0 kts | 110° |
| 2026-04-20 17:59 | 43.82524 | 18.33585 | 1668 ft | 0 kts | 110° |
| 2026-04-20 17:59 | 43.82523 | 18.33588 | 1668 ft | 3 kts | 111° |
| 2026-04-20 17:59 | 43.82467 | 18.33698 | 1674 ft | 20 kts | 127° |
| 2026-04-20 17:59 | 43.82387 | 18.33843 | 1676 ft | 18 kts | 127° |
| 2026-04-20 18:00 | 43.82330 | 18.33977 | 1668 ft | 15 kts | 119° |
| 2026-04-20 18:00 | 43.82288 | 18.34080 | 1668 ft | 10 kts | 119° |
| 2026-04-20 18:00 | 43.82265 | 18.34137 | 1678 ft | 4 kts | 119° |
| 2026-04-20 18:00 | 43.82260 | 18.34150 | 1668 ft | 0 kts | 119° |
| 2026-04-20 18:01 | 43.82233 | 18.34227 | 1668 ft | 23 kts | 115° |
| 2026-04-20 18:01 | 43.82167 | 18.34418 | 1668 ft | 21 kts | 116° |
| 2026-04-20 18:01 | 43.82108 | 18.34572 | 1677 ft | 14 kts | 122° |
| 2026-04-20 18:01 | 43.82042 | 18.34629 | 1668 ft | 9 kts | 163° |
| 2026-04-20 18:02 | 43.82000 | 18.34629 | 1668 ft | 5 kts | 190° |
| 2026-04-20 18:02 | 43.81954 | 18.34601 | 1668 ft | 5 kts | 220° |
| 2026-04-20 18:02 | 43.81945 | 18.34531 | 1668 ft | 10 kts | 281° |
| 2026-04-20 18:02 | 43.81966 | 18.34464 | 1668 ft | 5 kts | 296° |
| 2026-04-20 18:03 | 43.81980 | 18.34426 | 1680 ft | 10 kts | 298° |
| 2026-04-20 18:03 | 43.82136 | 18.34010 | 1675 ft | 86 kts | 298° |
| 2026-04-20 18:03 | 43.82508 | 18.33012 | 1676 ft | 145 kts | 298° |
| 2026-04-20 18:03 | 43.83033 | 18.31678 | 2059 ft | 160 kts | 298° |
| 2026-04-20 18:04 | 43.83606 | 18.30311 | 2612 ft | 171 kts | 300° |
| 2026-04-20 18:04 | 43.84223 | 18.28837 | 3105 ft | 184 kts | 299° |
| 2026-04-20 18:04 | 43.84914 | 18.27244 | 3546 ft | 198 kts | 301° |
| 2026-04-20 18:04 | 43.85693 | 18.25574 | 3974 ft | 210 kts | 303° |
| 2026-04-20 18:05 | 43.87357 | 18.22483 | 5469 ft | 198 kts | 308° |
| 2026-04-20 18:05 | 43.87916 | 18.20715 | 5810 ft | 212 kts | 272° |
| 2026-04-20 18:05 | 43.87534 | 18.18742 | 6108 ft | 222 kts | 233° |
| 2026-04-20 18:06 | 43.86280 | 18.17502 | 6552 ft | 227 kts | 194° |
| 2026-04-20 18:06 | 43.84720 | 18.17646 | 7073 ft | 231 kts | 156° |
| 2026-04-20 18:06 | 43.83374 | 18.18890 | 7563 ft | 236 kts | 143° |
| 2026-04-20 18:06 | 43.82059 | 18.20398 | 7912 ft | 255 kts | 140° |
| 2026-04-20 18:07 | 43.80649 | 18.22077 | 8282 ft | 277 kts | 139° |
| 2026-04-20 18:07 | 43.79270 | 18.24017 | 8931 ft | 287 kts | 133° |
| 2026-04-20 18:07 | 43.77982 | 18.26164 | 9683 ft | 293 kts | 129° |
| 2026-04-20 18:07 | 43.76710 | 18.28423 | 10296 ft | 305 kts | 129° |
| 2026-04-20 18:08 | 43.75367 | 18.30833 | 10535 ft | 328 kts | 129° |
| 2026-04-20 18:08 | 43.73914 | 18.33420 | 10732 ft | 352 kts | 129° |
| 2026-04-20 18:08 | 43.72347 | 18.36160 | 10875 ft | 375 kts | 130° |
| 2026-04-20 18:08 | 43.70671 | 18.39051 | 11124 ft | 392 kts | 130° |
| 2026-04-20 18:09 | 43.68959 | 18.41971 | 11674 ft | 399 kts | 130° |
| 2026-04-20 18:09 | 43.67200 | 18.44956 | 12268 ft | 404 kts | 130° |
| 2026-04-20 18:09 | 43.65428 | 18.48009 | 12847 ft | 410 kts | 127° |
| 2026-04-20 18:09 | 43.63930 | 18.51399 | 13396 ft | 417 kts | 117° |
| 2026-04-20 18:10 | 43.62603 | 18.54986 | 13943 ft | 422 kts | 117° |
| 2026-04-20 18:10 | 43.61261 | 18.58616 | 14496 ft | 427 kts | 117° |
| 2026-04-20 18:10 | 43.59902 | 18.62280 | 15030 ft | 432 kts | 117° |
| 2026-04-20 18:10 | 43.58533 | 18.65953 | 15542 ft | 436 kts | 117° |
| 2026-04-20 18:11 | 43.57132 | 18.69708 | 16025 ft | 442 kts | 117° |
| 2026-04-20 18:11 | 43.55719 | 18.73493 | 16547 ft | 447 kts | 117° |
| 2026-04-20 18:11 | 43.54289 | 18.77315 | 17013 ft | 451 kts | 117° |
| 2026-04-20 18:11 | 43.52845 | 18.81165 | 17486 ft | 455 kts | 117° |
| 2026-04-20 18:12 | 43.51384 | 18.85058 | 17962 ft | 458 kts | 117° |
| 2026-04-20 18:12 | 43.49911 | 18.88975 | 18403 ft | 462 kts | 117° |
| 2026-04-20 18:12 | 43.48424 | 18.92920 | 18872 ft | 466 kts | 117° |
| 2026-04-20 18:12 | 43.47074 | 18.96977 | 19298 ft | 469 kts | 110° |
| 2026-04-20 18:13 | 43.46033 | 19.01250 | 19694 ft | 472 kts | 107° |
| 2026-04-20 18:13 | 43.45003 | 19.05553 | 20092 ft | 474 kts | 108° |
| 2026-04-20 18:13 | 43.43961 | 19.09869 | 20499 ft | 477 kts | 108° |
| 2026-04-20 18:13 | 43.42923 | 19.14154 | 20889 ft | 479 kts | 108° |
| 2026-04-20 18:14 | 43.41866 | 19.18520 | 21264 ft | 482 kts | 108° |
| 2026-04-20 18:14 | 43.40802 | 19.22899 | 21629 ft | 484 kts | 108° |
| 2026-04-20 18:14 | 43.39729 | 19.27310 | 21947 ft | 487 kts | 108° |
| 2026-04-20 18:14 | 43.38647 | 19.31739 | 22262 ft | 490 kts | 109° |
| 2026-04-20 18:15 | 43.37558 | 19.36178 | 22590 ft | 492 kts | 109° |
| 2026-04-20 18:15 | 43.36458 | 19.40649 | 22898 ft | 495 kts | 109° |
| 2026-04-20 18:15 | 43.35344 | 19.45132 | 23204 ft | 497 kts | 110° |
| 2026-04-20 18:15 | 43.34147 | 19.49594 | 23498 ft | 499 kts | 112° |
| 2026-04-20 18:16 | 43.32858 | 19.54039 | 23779 ft | 501 kts | 113° |
| 2026-04-20 18:16 | 43.31515 | 19.58459 | 24049 ft | 503 kts | 114° |
| 2026-04-20 18:16 | 43.30149 | 19.62895 | 24295 ft | 504 kts | 114° |
| 2026-04-20 18:16 | 43.28790 | 19.67339 | 24549 ft | 507 kts | 114° |
| 2026-04-20 18:17 | 43.27436 | 19.71821 | 24781 ft | 508 kts | 113° |
| 2026-04-20 18:17 | 43.26094 | 19.76318 | 25011 ft | 510 kts | 113° |
| 2026-04-20 18:17 | 43.24773 | 19.80790 | 25242 ft | 512 kts | 112° |
| 2026-04-20 18:17 | 43.23439 | 19.85337 | 25447 ft | 514 kts | 112° |
| 2026-04-20 18:18 | 43.22097 | 19.89904 | 25641 ft | 516 kts | 112° |
| 2026-04-20 18:18 | 43.20748 | 19.94460 | 25925 ft | 515 kts | 112° |
| 2026-04-20 18:18 | 43.19394 | 19.99004 | 26211 ft | 515 kts | 112° |
| 2026-04-20 18:18 | 43.18031 | 20.03553 | 26502 ft | 515 kts | 113° |
| 2026-04-20 18:19 | 43.16667 | 20.08084 | 26807 ft | 514 kts | 112° |
| 2026-04-20 18:19 | 43.15303 | 20.12610 | 26970 ft | 514 kts | 112° |
| 2026-04-20 18:19 | 43.13948 | 20.17103 | 27002 ft | 518 kts | 112° |
| 2026-04-20 18:19 | 43.12573 | 20.21662 | 27000 ft | 519 kts | 112° |
| 2026-04-20 18:20 | 43.11195 | 20.26225 | 26996 ft | 519 kts | 112° |
| 2026-04-20 18:20 | 43.09813 | 20.30788 | 26998 ft | 519 kts | 112° |
| 2026-04-20 18:20 | 43.08429 | 20.35341 | 26999 ft | 519 kts | 112° |
| 2026-04-20 18:20 | 43.07043 | 20.39899 | 26971 ft | 517 kts | 112° |
| 2026-04-20 18:21 | 43.05681 | 20.44382 | 26725 ft | 501 kts | 112° |
| 2026-04-20 18:21 | 43.04364 | 20.48722 | 26480 ft | 486 kts | 112° |
| 2026-04-20 18:21 | 43.03030 | 20.52923 | 26228 ft | 475 kts | 118° |
| 2026-04-20 18:21 | 43.01350 | 20.56720 | 25954 ft | 468 kts | 127° |
| 2026-04-20 18:22 | 42.99260 | 20.60147 | 25349 ft | 461 kts | 137° |
| 2026-04-20 18:22 | 42.96871 | 20.63007 | 24769 ft | 454 kts | 147° |
| 2026-04-20 18:22 | 42.94348 | 20.65477 | 24200 ft | 450 kts | 148° |
| 2026-04-20 18:22 | 42.91816 | 20.67955 | 23645 ft | 446 kts | 148° |
| 2026-04-20 18:23 | 42.89309 | 20.70422 | 23112 ft | 442 kts | 148° |
| 2026-04-20 18:23 | 42.86826 | 20.72869 | 22578 ft | 439 kts | 147° |
| 2026-04-20 18:23 | 42.84365 | 20.75294 | 22096 ft | 434 kts | 147° |
| 2026-04-20 18:23 | 42.81925 | 20.77696 | 21613 ft | 431 kts | 147° |
| 2026-04-20 18:24 | 42.79506 | 20.80075 | 21146 ft | 427 kts | 147° |
| 2026-04-20 18:24 | 42.77101 | 20.82437 | 20685 ft | 423 kts | 147° |
| 2026-04-20 18:24 | 42.74720 | 20.84767 | 20212 ft | 421 kts | 147° |
| 2026-04-20 18:24 | 42.72351 | 20.87080 | 19746 ft | 417 kts | 147° |
| 2026-04-20 18:25 | 42.70001 | 20.89370 | 19266 ft | 414 kts | 147° |
| 2026-04-20 18:25 | 42.67668 | 20.91639 | 18788 ft | 411 kts | 147° |
| 2026-04-20 18:25 | 42.65349 | 20.93891 | 18298 ft | 408 kts | 147° |
| 2026-04-20 18:25 | 42.63075 | 20.96102 | 17806 ft | 406 kts | 147° |
| 2026-04-20 18:26 | 42.60785 | 20.98328 | 17300 ft | 404 kts | 146° |
| 2026-04-20 18:26 | 42.58523 | 21.00587 | 16793 ft | 403 kts | 142° |
| 2026-04-20 18:26 | 42.56546 | 21.03269 | 16294 ft | 402 kts | 130° |
| 2026-04-20 18:26 | 42.54988 | 21.06408 | 15787 ft | 400 kts | 118° |
| 2026-04-20 18:27 | 42.53898 | 21.09867 | 15289 ft | 398 kts | 107° |
| 2026-04-20 18:27 | 42.53060 | 21.13437 | 14790 ft | 395 kts | 107° |
| 2026-04-20 18:27 | 42.52228 | 21.16964 | 14296 ft | 392 kts | 107° |
| 2026-04-20 18:27 | 42.51395 | 21.20478 | 13785 ft | 390 kts | 107° |
| 2026-04-20 18:28 | 42.50565 | 21.23965 | 13277 ft | 387 kts | 107° |
| 2026-04-20 18:28 | 42.49737 | 21.27424 | 12762 ft | 384 kts | 107° |
| 2026-04-20 18:28 | 42.48914 | 21.30861 | 12264 ft | 381 kts | 107° |
| 2026-04-20 18:28 | 42.48099 | 21.34258 | 11750 ft | 378 kts | 107° |
| 2026-04-20 18:29 | 42.47287 | 21.37631 | 11230 ft | 375 kts | 108° |
| 2026-04-20 18:29 | 42.46489 | 21.40936 | 10745 ft | 371 kts | 107° |
| 2026-04-20 18:29 | 42.45697 | 21.44234 | 10485 ft | 366 kts | 107° |
| 2026-04-20 18:29 | 42.44753 | 21.47426 | 10387 ft | 365 kts | 118° |
| 2026-04-20 18:30 | 42.43408 | 21.50339 | 10232 ft | 364 kts | 123° |
| 2026-04-20 18:30 | 42.42048 | 21.53156 | 10067 ft | 350 kts | 123° |
| 2026-04-20 18:30 | 42.40740 | 21.55858 | 9982 ft | 334 kts | 123° |
| 2026-04-20 18:30 | 42.39505 | 21.58413 | 9970 ft | 317 kts | 123° |
| 2026-04-20 18:31 | 42.38315 | 21.60871 | 9844 ft | 307 kts | 123° |
| 2026-04-20 18:31 | 42.37060 | 21.63146 | 9716 ft | 297 kts | 135° |
| 2026-04-20 18:31 | 42.35461 | 21.64841 | 9487 ft | 289 kts | 152° |
| 2026-04-20 18:31 | 42.33615 | 21.65851 | 9162 ft | 284 kts | 168° |
| 2026-04-20 18:32 | 42.31668 | 21.66221 | 8806 ft | 282 kts | 175° |
| 2026-04-20 18:32 | 42.29724 | 21.66484 | 8347 ft | 279 kts | 175° |
| 2026-04-20 18:32 | 42.27797 | 21.66750 | 7779 ft | 278 kts | 175° |
| 2026-04-20 18:32 | 42.25887 | 21.67017 | 7259 ft | 274 kts | 175° |
| 2026-04-20 18:33 | 42.24100 | 21.67258 | 6775 ft | 269 kts | 177° |
| 2026-04-20 18:33 | 42.22268 | 21.67057 | 6330 ft | 261 kts | 195° |
| 2026-04-20 18:33 | 42.20582 | 21.66322 | 5841 ft | 257 kts | 200° |
| 2026-04-20 18:33 | 42.18898 | 21.65547 | 5337 ft | 253 kts | 200° |
| 2026-04-20 18:34 | 42.17245 | 21.64794 | 4863 ft | 249 kts | 199° |
| 2026-04-20 18:34 | 42.15614 | 21.64055 | 4397 ft | 245 kts | 199° |
| 2026-04-20 18:34 | 42.14029 | 21.63287 | 3992 ft | 239 kts | 202° |
| 2026-04-20 18:34 | 42.12506 | 21.62459 | 3584 ft | 234 kts | 203° |
| 2026-04-20 18:35 | 42.11025 | 21.61625 | 3193 ft | 229 kts | 203° |
| 2026-04-20 18:35 | 42.09586 | 21.60807 | 3007 ft | 218 kts | 203° |
| 2026-04-20 18:35 | 42.08198 | 21.60019 | 3052 ft | 215 kts | 202° |
| 2026-04-20 18:35 | 42.06824 | 21.59389 | 2968 ft | 200 kts | 193° |
| 2026-04-20 18:36 | 42.05490 | 21.59198 | 2582 ft | 189 kts | 179° |
| 2026-04-20 18:36 | 42.04242 | 21.59368 | 2171 ft | 176 kts | 171° |
| 2026-04-20 18:36 | 42.03111 | 21.59683 | 2008 ft | 157 kts | 166° |
| 2026-04-20 18:36 | 42.02081 | 21.60047 | 1795 ft | 150 kts | 165° |
| 2026-04-20 18:37 | 42.01102 | 21.60404 | 1593 ft | 145 kts | 165° |
| 2026-04-20 18:37 | 42.00124 | 21.60741 | 1360 ft | 144 kts | 167° |
| 2026-04-20 18:37 | 41.99159 | 21.61088 | 1208 ft | 143 kts | 164° |
| 2026-04-20 18:37 | 41.98191 | 21.61424 | 1042 ft | 143 kts | 165° |
| 2026-04-20 18:38 | 41.97230 | 21.61770 | 829 ft | 143 kts | 165° |
| 2026-04-20 18:38 | 41.96332 | 21.62085 | 786 ft | 122 kts | 166° |
| 2026-04-20 18:38 | 41.95616 | 21.62339 | 778 ft | 94 kts | 165° |
| 2026-04-20 18:38 | 41.95129 | 21.62509 | 779 ft | 80 kts | 165° |
| 2026-04-20 18:39 | 41.94859 | 21.62603 | 777 ft | 0 kts | 166° |